Magne Viking — OURK2 — position and weather

sailwx.info

Track history (hours):
 
Tides and Currents Weather Stations Pressure Air Temp Water Temp Dewpoint Dewpoint Depression Visibility Wind Speed Wind Dir Waves Ship Positions

Magne Viking

Last reported at 2014-Jul-02 12:14 UTC. Time now 2014-Jul-24 06:25 UTC.
Position N 59°03' E 005°00'.
Warning: this ship's position is 21 days out of date.

Length 85 m; draft 7 m.

Type: Tug. MMSI: 219375000.

Date/timePositionNaut miles runAvg speedWind from/ knotsBaromVisibWave heightAir tempDewpointWater temp
2014-Jul-02 12:14N 59°03' E 005°00'710.4
2014-Jul-02 11:33N 58°58' E 005°11'1111.1
2014-Jul-02 10:33N 58°51' E 005°28'6 5.5
2014-Jul-02 09:33N 58°55' E 005°35'4 3.6
2014-Jul-02 08:33N 58°59' E 005°33'9 9.0
2014-Jul-02 07:33N 59°07' E 005°26'10 8.9
2014-Jul-02 06:23N 59°17' E 005°20'8 8.3
2014-Jul-02 05:23N 59°25' E 005°14'47 9.5
2014-Jul-02 00:28N 60°11' E 005°13'11 9.7
2014-Jul-01 23:20N 60°22' E 005°10'810.4
2014-Jul-01 22:33N 60°29' E 004°59'3 0.1
2014-Jun-30 02:33N 60°32' E 004°57'1110.2
2014-Jun-30 01:30N 60°23' E 005°10'9 9.4
2014-Jun-30 00:34N 60°14' E 005°10'45 8.7
2014-Jun-29 19:25N 59°30' E 005°13'12 8.9
2014-Jun-29 18:07N 59°19' E 005°20'610.1
2014-Jun-29 17:32N 59°13' E 005°21'9 9.3
2014-Jun-29 16:33N 59°06' E 005°32'5 5.1
2014-Jun-29 15:33N 59°01' E 005°37'0 0.0
2014-Jun-29 14:33N 59°01' E 005°37'0 0.0
2014-Jun-29 13:32N 59°01' E 005°37'0 0.0
2014-Jun-29 12:32N 59°01' E 005°37'0 0.0
2014-Jun-29 11:32N 59°01' E 005°37'0 0.0
2014-Jun-29 10:33N 59°01' E 005°37'0 0.0
2014-Jun-29 09:31N 59°01' E 005°37'1582.6
2014-Jun-29 09:20N 58°59' E 006°05'1518.1
2014-Jun-29 08:31N 59°01' E 005°37'9 9.4
2014-Jun-29 07:33N 58°58' E 005°54'9558.8
2014-Jun-29 07:32N 59°01' E 005°37'0 0.0
2014-Jun-29 06:33N 59°01' E 005°37'0 0.0
2014-Jun-29 05:33N 59°01' E 005°37'0 0.0
2014-Jun-29 04:31N 59°01' E 005°37'0 0.0
2014-Jun-29 03:32N 59°01' E 005°37'0 0.0
2014-Jun-29 02:32N 59°01' E 005°37'0 0.0
2014-Jun-29 01:33N 59°01' E 005°37'0 0.0
2014-Jun-29 00:31N 59°01' E 005°37'0 0.0
2014-Jun-28 23:31N 59°01' E 005°37'0 0.0
2014-Jun-28 22:32N 59°01' E 005°37'0 0.0
2014-Jun-28 21:33N 59°01' E 005°37'0 0.0
2014-Jun-28 20:33N 59°01' E 005°37'0 0.0
2014-Jun-28 19:31N 59°01' E 005°37'0 0.0
2014-Jun-28 18:32N 59°01' E 005°37'0 0.0
2014-Jun-28 17:32N 59°01' E 005°37'0 0.0
2014-Jun-28 16:33N 59°01' E 005°37'2 1.9
2014-Jun-28 15:34N 59°00' E 005°40'0 0.0
2014-Jun-28 14:32N 59°00' E 005°40'0 0.0
2014-Jun-28 13:33N 59°00' E 005°40'0 0.0
2014-Jun-28 12:31N 59°00' E 005°40'0 0.0
2014-Jun-28 11:31N 59°00' E 005°40'0 0.0
2014-Jun-28 10:32N 59°00' E 005°40'0 0.0
2014-Jun-28 09:33N 59°00' E 005°40'0 0.0
2014-Jun-28 08:33N 59°00' E 005°40'0 0.0
2014-Jun-28 07:31N 59°00' E 005°40'4 4.3
2014-Jun-28 06:33N 59°02' E 005°47'7 6.6
2014-Jun-28 05:33N 58°55' E 005°44'0 0.0
2014-Jun-28 04:31N 58°55' E 005°44'0 0.0
2014-Jun-28 03:32N 58°55' E 005°44'0 0.0
2014-Jun-28 02:32N 58°55' E 005°44'0 0.0
2014-Jun-28 01:33N 58°55' E 005°44'0 0.0
2014-Jun-28 00:31N 58°55' E 005°44'0 0.0
2014-Jun-27 23:31N 58°55' E 005°44'0 0.0
2014-Jun-27 22:32N 58°55' E 005°44'0 0.0
2014-Jun-27 21:33N 58°55' E 005°44'0 0.0
2014-Jun-27 20:33N 58°55' E 005°44'0 0.0
2014-Jun-27 19:31N 58°55' E 005°44'0 0.0
2014-Jun-27 18:32N 58°55' E 005°44'0 0.0
2014-Jun-27 17:32N 58°55' E 005°44'0 0.0
2014-Jun-27 16:33N 58°55' E 005°44'0 0.0
2014-Jun-27 15:31N 58°55' E 005°44'0 0.3
2014-Jun-27 14:33N 58°55' E 005°45'0 0.1
2014-Jun-27 13:33N 58°55' E 005°45'0 0.2
2014-Jun-27 12:33N 58°55' E 005°45'0 0.1
2014-Jun-27 11:33N 58°55' E 005°46'0 0.0
2014-Jun-27 10:33N 58°55' E 005°46'0 0.0
2014-Jun-27 09:33N 58°55' E 005°46'0 0.0
2014-Jun-27 08:33N 58°55' E 005°46'1 0.6
2014-Jun-27 07:32N 58°55' E 005°44'0 0.0
2014-Jun-27 06:33N 58°55' E 005°44'0 0.0
2014-Jun-27 05:33N 58°55' E 005°44'0 0.0
2014-Jun-27 04:31N 58°55' E 005°44'0 0.0
2014-Jun-27 03:31N 58°55' E 005°44'0 0.0
2014-Jun-27 02:32N 58°55' E 005°44'0 0.0
2014-Jun-27 01:33N 58°55' E 005°44'0 0.0
2014-Jun-27 00:33N 58°55' E 005°44'0 0.0
2014-Jun-26 23:31N 58°55' E 005°44'0 0.0
2014-Jun-26 22:32N 58°55' E 005°44'0 0.0
2014-Jun-26 21:33N 58°55' E 005°44'0 0.0
2014-Jun-26 20:33N 58°55' E 005°44'0 0.0
2014-Jun-26 19:31N 58°55' E 005°44'0 0.0
2014-Jun-26 18:32N 58°55' E 005°44'0 0.0
2014-Jun-26 17:32N 58°55' E 005°44'0 0.0
2014-Jun-26 16:33N 58°55' E 005°44'0 0.0
2014-Jun-26 15:33N 58°55' E 005°44'0 0.0
2014-Jun-26 14:31N 58°55' E 005°44'0 0.0
2014-Jun-26 13:32N 58°55' E 005°44'0 0.0
2014-Jun-26 12:32N 58°55' E 005°44'0 0.0
2014-Jun-26 11:33N 58°55' E 005°44'0 0.0
2014-Jun-26 10:31N 58°55' E 005°44'0 0.0
2014-Jun-26 09:31N 58°55' E 005°44'0 0.0
2014-Jun-26 08:32N 58°55' E 005°44'0 0.0
2014-Jun-26 07:33N 58°55' E 005°44'0 0.0
2014-Jun-26 06:33N 58°55' E 005°44'0 0.0
2014-Jun-26 05:31N 58°55' E 005°44'0 0.0
2014-Jun-26 04:32N 58°55' E 005°44'0 0.0
2014-Jun-26 03:33N 58°55' E 005°44'0 0.0
2014-Jun-26 02:33N 58°55' E 005°44'0 0.0
2014-Jun-26 01:31N 58°55' E 005°44'0 0.0
2014-Jun-26 00:32N 58°55' E 005°44'0 0.0
2014-Jun-25 23:32N 58°55' E 005°44'0 0.0
2014-Jun-25 22:33N 58°55' E 005°44'0 0.0
2014-Jun-25 21:34N 58°55' E 005°44'0 0.0
2014-Jun-25 20:31N 58°55' E 005°44'0 0.0
2014-Jun-25 19:32N 58°55' E 005°44'0 0.0
2014-Jun-25 18:33N 58°55' E 005°44'0 0.0
2014-Jun-25 17:33N 58°55' E 005°44'0 0.0
2014-Jun-25 16:31N 58°55' E 005°44'0 0.0
2014-Jun-25 15:32N 58°55' E 005°44'0 0.0
2014-Jun-25 14:32N 58°55' E 005°44'0 0.0
2014-Jun-25 13:33N 58°55' E 005°44'0 0.0
2014-Jun-25 12:34N 58°55' E 005°44'0 0.0
2014-Jun-25 11:31N 58°55' E 005°44'0 0.0
2014-Jun-25 10:32N 58°55' E 005°44'0 0.0
2014-Jun-25 09:33N 58°55' E 005°44'0 0.0
2014-Jun-25 08:33N 58°55' E 005°44'0 0.0
2014-Jun-25 07:31N 58°55' E 005°44'0 0.0
2014-Jun-25 06:32N 58°55' E 005°44'0 0.0
2014-Jun-25 05:32N 58°55' E 005°44'0 0.0
2014-Jun-25 04:33N 58°55' E 005°44'0 0.0
2014-Jun-25 03:31N 58°55' E 005°44'0 0.0
2014-Jun-25 02:31N 58°55' E 005°44'0 0.0
2014-Jun-25 01:32N 58°55' E 005°44'0 0.0
2014-Jun-25 00:33N 58°55' E 005°44'0 0.0
2014-Jun-24 23:33N 58°55' E 005°44'0 0.0
2014-Jun-24 22:31N 58°55' E 005°44'0 0.0
2014-Jun-24 21:32N 58°55' E 005°44'0 0.0
2014-Jun-24 20:32N 58°55' E 005°44'0 0.0
2014-Jun-24 19:33N 58°55' E 005°44'0 0.0
2014-Jun-24 18:31N 58°55' E 005°44'0 0.0
2014-Jun-24 17:31N 58°55' E 005°44'0 0.0
2014-Jun-24 16:29N 58°55' E 005°44'0 0.0
2014-Jun-24 15:33N 58°55' E 005°44'0 0.0
2014-Jun-24 14:33N 58°55' E 005°44'0 0.0
2014-Jun-24 13:31N 58°55' E 005°44'0 0.0
2014-Jun-24 12:32N 58°55' E 005°44'0 0.0
2014-Jun-24 11:32N 58°55' E 005°44'0 0.0
2014-Jun-24 10:33N 58°55' E 005°44'0 0.0
2014-Jun-24 09:31N 58°55' E 005°44'0 0.0
2014-Jun-24 08:31N 58°55' E 005°44'0 0.0
2014-Jun-24 07:32N 58°55' E 005°44'0 0.0
2014-Jun-24 06:33N 58°55' E 005°44'0 0.0
2014-Jun-24 05:33N 58°55' E 005°44'0 0.0
2014-Jun-24 04:31N 58°55' E 005°44'0 0.0
2014-Jun-24 03:32N 58°55' E 005°44'0 0.0
2014-Jun-24 02:32N 58°55' E 005°44'0 0.0
2014-Jun-24 01:33N 58°55' E 005°44'0 0.0
2014-Jun-24 00:31N 58°55' E 005°44'0 0.0
2014-Jun-23 23:31N 58°55' E 005°44'0 0.0
2014-Jun-23 22:32N 58°55' E 005°44'0 0.0
2014-Jun-23 21:33N 58°55' E 005°44'0 0.0
2014-Jun-23 20:33N 58°55' E 005°44'0 0.0
2014-Jun-23 19:31N 58°55' E 005°44'0 0.0
2014-Jun-23 18:32N 58°55' E 005°44'0 0.0
2014-Jun-23 17:32N 58°55' E 005°44'0 0.0
2014-Jun-23 16:33N 58°55' E 005°44'0 0.0
2014-Jun-23 15:31N 58°55' E 005°44'0 0.0
2014-Jun-23 14:31N 58°55' E 005°44'0 0.0
2014-Jun-23 12:33N 58°55' E 005°44'0 0.0
2014-Jun-23 11:33N 58°55' E 005°44'0 0.0
2014-Jun-23 10:31N 58°55' E 005°44'0 0.0
2014-Jun-23 09:32N 58°55' E 005°44'0 0.0
2014-Jun-23 08:32N 58°55' E 005°44'0 0.0
2014-Jun-23 07:33N 58°55' E 005°44'0 0.0
2014-Jun-23 06:31N 58°55' E 005°44'0 0.0
2014-Jun-23 05:31N 58°55' E 005°44'0 0.0
2014-Jun-23 04:32N 58°55' E 005°44'0 0.0
2014-Jun-23 03:33N 58°55' E 005°44'0 0.0
2014-Jun-23 02:33N 58°55' E 005°44'0 0.0
2014-Jun-23 01:31N 58°55' E 005°44'0 0.0
2014-Jun-23 00:32N 58°55' E 005°44'0 0.0
2014-Jun-22 23:32N 58°55' E 005°44'0 0.0
2014-Jun-22 22:33N 58°55' E 005°44'0 0.0
2014-Jun-22 21:31N 58°55' E 005°44'0 0.0
2014-Jun-22 20:31N 58°55' E 005°44'0 0.0
2014-Jun-22 19:32N 58°55' E 005°44'0 0.0
2014-Jun-22 18:33N 58°55' E 005°44'0 0.0
2014-Jun-22 17:33N 58°55' E 005°44'0 0.0
2014-Jun-22 16:31N 58°55' E 005°44'0 0.0
2014-Jun-22 15:32N 58°55' E 005°44'0 0.0
2014-Jun-22 14:32N 58°55' E 005°44'0 0.0
2014-Jun-22 13:33N 58°55' E 005°44'0 0.0
2014-Jun-22 12:31N 58°55' E 005°44'  
Track history (hours):
 
Tides and Currents Weather Stations Pressure Air Temp Water Temp Dewpoint Dewpoint Depression Visibility Wind Speed Wind Dir Waves Ship Positions

Magne Viking

Last reported at 2014-Jul-02 12:14 UTC. Time now 2014-Jul-24 06:25 UTC.
Position N 59°03' E 005°00'.
Warning: this ship's position is 21 days out of date.

Length 85 m; draft 7 m.

Type: Tug. MMSI: 219375000.

Date/timePositionNaut miles runAvg speedWind from/ knotsBaromVisibWave heightAir tempDewpointWater temp
2014-Jul-02 12:14N 59°03' E 005°00'710.4
2014-Jul-02 11:33N 58°58' E 005°11'1111.1
2014-Jul-02 10:33N 58°51' E 005°28'6 5.5
2014-Jul-02 09:33N 58°55' E 005°35'4 3.6
2014-Jul-02 08:33N 58°59' E 005°33'9 9.0
2014-Jul-02 07:33N 59°07' E 005°26'10 8.9
2014-Jul-02 06:23N 59°17' E 005°20'8 8.3
2014-Jul-02 05:23N 59°25' E 005°14'47 9.5
2014-Jul-02 00:28N 60°11' E 005°13'11 9.7
2014-Jul-01 23:20N 60°22' E 005°10'810.4
2014-Jul-01 22:33N 60°29' E 004°59'3 0.1
2014-Jun-30 02:33N 60°32' E 004°57'1110.2
2014-Jun-30 01:30N 60°23' E 005°10'9 9.4
2014-Jun-30 00:34N 60°14' E 005°10'45 8.7
2014-Jun-29 19:25N 59°30' E 005°13'12 8.9
2014-Jun-29 18:07N 59°19' E 005°20'610.1
2014-Jun-29 17:32N 59°13' E 005°21'9 9.3
2014-Jun-29 16:33N 59°06' E 005°32'5 5.1
2014-Jun-29 15:33N 59°01' E 005°37'0 0.0
2014-Jun-29 14:33N 59°01' E 005°37'0 0.0
2014-Jun-29 13:32N 59°01' E 005°37'0 0.0
2014-Jun-29 12:32N 59°01' E 005°37'0 0.0
2014-Jun-29 11:32N 59°01' E 005°37'0 0.0
2014-Jun-29 10:33N 59°01' E 005°37'0 0.0
2014-Jun-29 09:31N 59°01' E 005°37'1582.6
2014-Jun-29 09:20N 58°59' E 006°05'1518.1
2014-Jun-29 08:31N 59°01' E 005°37'9 9.4
2014-Jun-29 07:33N 58°58' E 005°54'9558.8
2014-Jun-29 07:32N 59°01' E 005°37'0 0.0
2014-Jun-29 06:33N 59°01' E 005°37'0 0.0
2014-Jun-29 05:33N 59°01' E 005°37'0 0.0
2014-Jun-29 04:31N 59°01' E 005°37'0 0.0
2014-Jun-29 03:32N 59°01' E 005°37'0 0.0
2014-Jun-29 02:32N 59°01' E 005°37'0 0.0
2014-Jun-29 01:33N 59°01' E 005°37'0 0.0
2014-Jun-29 00:31N 59°01' E 005°37'0 0.0
2014-Jun-28 23:31N 59°01' E 005°37'0 0.0
2014-Jun-28 22:32N 59°01' E 005°37'0 0.0
2014-Jun-28 21:33N 59°01' E 005°37'0 0.0
2014-Jun-28 20:33N 59°01' E 005°37'0 0.0
2014-Jun-28 19:31N 59°01' E 005°37'0 0.0
2014-Jun-28 18:32N 59°01' E 005°37'0 0.0
2014-Jun-28 17:32N 59°01' E 005°37'0 0.0
2014-Jun-28 16:33N 59°01' E 005°37'2 1.9
2014-Jun-28 15:34N 59°00' E 005°40'0 0.0
2014-Jun-28 14:32N 59°00' E 005°40'0 0.0
2014-Jun-28 13:33N 59°00' E 005°40'0 0.0
2014-Jun-28 12:31N 59°00' E 005°40'0 0.0
2014-Jun-28 11:31N 59°00' E 005°40'0 0.0
2014-Jun-28 10:32N 59°00' E 005°40'0 0.0
2014-Jun-28 09:33N 59°00' E 005°40'0 0.0
2014-Jun-28 08:33N 59°00' E 005°40'0 0.0
2014-Jun-28 07:31N 59°00' E 005°40'4 4.3
2014-Jun-28 06:33N 59°02' E 005°47'7 6.6
2014-Jun-28 05:33N 58°55' E 005°44'0 0.0
2014-Jun-28 04:31N 58°55' E 005°44'0 0.0
2014-Jun-28 03:32N 58°55' E 005°44'0 0.0
2014-Jun-28 02:32N 58°55' E 005°44'0 0.0
2014-Jun-28 01:33N 58°55' E 005°44'0 0.0
2014-Jun-28 00:31N 58°55' E 005°44'0 0.0
2014-Jun-27 23:31N 58°55' E 005°44'0 0.0
2014-Jun-27 22:32N 58°55' E 005°44'0 0.0
2014-Jun-27 21:33N 58°55' E 005°44'0 0.0
2014-Jun-27 20:33N 58°55' E 005°44'0 0.0
2014-Jun-27 19:31N 58°55' E 005°44'0 0.0
2014-Jun-27 18:32N 58°55' E 005°44'0 0.0
2014-Jun-27 17:32N 58°55' E 005°44'0 0.0
2014-Jun-27 16:33N 58°55' E 005°44'0 0.0
2014-Jun-27 15:31N 58°55' E 005°44'0 0.3
2014-Jun-27 14:33N 58°55' E 005°45'0 0.1
2014-Jun-27 13:33N 58°55' E 005°45'0 0.2
2014-Jun-27 12:33N 58°55' E 005°45'0 0.1
2014-Jun-27 11:33N 58°55' E 005°46'0 0.0
2014-Jun-27 10:33N 58°55' E 005°46'0 0.0
2014-Jun-27 09:33N 58°55' E 005°46'0 0.0
2014-Jun-27 08:33N 58°55' E 005°46'1 0.6
2014-Jun-27 07:32N 58°55' E 005°44'0 0.0
2014-Jun-27 06:33N 58°55' E 005°44'0 0.0
2014-Jun-27 05:33N 58°55' E 005°44'0 0.0
2014-Jun-27 04:31N 58°55' E 005°44'0 0.0
2014-Jun-27 03:31N 58°55' E 005°44'0 0.0
2014-Jun-27 02:32N 58°55' E 005°44'0 0.0
2014-Jun-27 01:33N 58°55' E 005°44'0 0.0
2014-Jun-27 00:33N 58°55' E 005°44'0 0.0
2014-Jun-26 23:31N 58°55' E 005°44'0 0.0
2014-Jun-26 22:32N 58°55' E 005°44'0 0.0
2014-Jun-26 21:33N 58°55' E 005°44'0 0.0
2014-Jun-26 20:33N 58°55' E 005°44'0 0.0
2014-Jun-26 19:31N 58°55' E 005°44'0 0.0
2014-Jun-26 18:32N 58°55' E 005°44'0 0.0
2014-Jun-26 17:32N 58°55' E 005°44'0 0.0
2014-Jun-26 16:33N 58°55' E 005°44'0 0.0
2014-Jun-26 15:33N 58°55' E 005°44'0 0.0
2014-Jun-26 14:31N 58°55' E 005°44'0 0.0
2014-Jun-26 13:32N 58°55' E 005°44'0 0.0
2014-Jun-26 12:32N 58°55' E 005°44'0 0.0
2014-Jun-26 11:33N 58°55' E 005°44'0 0.0
2014-Jun-26 10:31N 58°55' E 005°44'0 0.0
2014-Jun-26 09:31N 58°55' E 005°44'0 0.0
2014-Jun-26 08:32N 58°55' E 005°44'0 0.0
2014-Jun-26 07:33N 58°55' E 005°44'0 0.0
2014-Jun-26 06:33N 58°55' E 005°44'0 0.0
2014-Jun-26 05:31N 58°55' E 005°44'0 0.0
2014-Jun-26 04:32N 58°55' E 005°44'0 0.0
2014-Jun-26 03:33N 58°55' E 005°44'0 0.0
2014-Jun-26 02:33N 58°55' E 005°44'0 0.0
2014-Jun-26 01:31N 58°55' E 005°44'0 0.0
2014-Jun-26 00:32N 58°55' E 005°44'0 0.0
2014-Jun-25 23:32N 58°55' E 005°44'0 0.0
2014-Jun-25 22:33N 58°55' E 005°44'0 0.0
2014-Jun-25 21:34N 58°55' E 005°44'0 0.0
2014-Jun-25 20:31N 58°55' E 005°44'0 0.0
2014-Jun-25 19:32N 58°55' E 005°44'0 0.0
2014-Jun-25 18:33N 58°55' E 005°44'0 0.0
2014-Jun-25 17:33N 58°55' E 005°44'0 0.0
2014-Jun-25 16:31N 58°55' E 005°44'0 0.0
2014-Jun-25 15:32N 58°55' E 005°44'0 0.0
2014-Jun-25 14:32N 58°55' E 005°44'0 0.0
2014-Jun-25 13:33N 58°55' E 005°44'0 0.0
2014-Jun-25 12:34N 58°55' E 005°44'0 0.0
2014-Jun-25 11:31N 58°55' E 005°44'0 0.0
2014-Jun-25 10:32N 58°55' E 005°44'0 0.0
2014-Jun-25 09:33N 58°55' E 005°44'0 0.0
2014-Jun-25 08:33N 58°55' E 005°44'0 0.0
2014-Jun-25 07:31N 58°55' E 005°44'0 0.0
2014-Jun-25 06:32N 58°55' E 005°44'0 0.0
2014-Jun-25 05:32N 58°55' E 005°44'0 0.0
2014-Jun-25 04:33N 58°55' E 005°44'0 0.0
2014-Jun-25 03:31N 58°55' E 005°44'0 0.0
2014-Jun-25 02:31N 58°55' E 005°44'0 0.0
2014-Jun-25 01:32N 58°55' E 005°44'0 0.0
2014-Jun-25 00:33N 58°55' E 005°44'0 0.0
2014-Jun-24 23:33N 58°55' E 005°44'0 0.0
2014-Jun-24 22:31N 58°55' E 005°44'0 0.0
2014-Jun-24 21:32N 58°55' E 005°44'0 0.0
2014-Jun-24 20:32N 58°55' E 005°44'0 0.0
2014-Jun-24 19:33N 58°55' E 005°44'0 0.0
2014-Jun-24 18:31N 58°55' E 005°44'0 0.0
2014-Jun-24 17:31N 58°55' E 005°44'0 0.0
2014-Jun-24 16:29N 58°55' E 005°44'0 0.0
2014-Jun-24 15:33N 58°55' E 005°44'0 0.0
2014-Jun-24 14:33N 58°55' E 005°44'0 0.0
2014-Jun-24 13:31N 58°55' E 005°44'0 0.0
2014-Jun-24 12:32N 58°55' E 005°44'0 0.0
2014-Jun-24 11:32N 58°55' E 005°44'0 0.0
2014-Jun-24 10:33N 58°55' E 005°44'0 0.0
2014-Jun-24 09:31N 58°55' E 005°44'0 0.0
2014-Jun-24 08:31N 58°55' E 005°44'0 0.0
2014-Jun-24 07:32N 58°55' E 005°44'0 0.0
2014-Jun-24 06:33N 58°55' E 005°44'0 0.0
2014-Jun-24 05:33N 58°55' E 005°44'0 0.0
2014-Jun-24 04:31N 58°55' E 005°44'0 0.0
2014-Jun-24 03:32N 58°55' E 005°44'0 0.0
2014-Jun-24 02:32N 58°55' E 005°44'0 0.0
2014-Jun-24 01:33N 58°55' E 005°44'0 0.0
2014-Jun-24 00:31N 58°55' E 005°44'0 0.0
2014-Jun-23 23:31N 58°55' E 005°44'0 0.0
2014-Jun-23 22:32N 58°55' E 005°44'0 0.0
2014-Jun-23 21:33N 58°55' E 005°44'0 0.0
2014-Jun-23 20:33N 58°55' E 005°44'0 0.0
2014-Jun-23 19:31N 58°55' E 005°44'0 0.0
2014-Jun-23 18:32N 58°55' E 005°44'0 0.0
2014-Jun-23 17:32N 58°55' E 005°44'0 0.0
2014-Jun-23 16:33N 58°55' E 005°44'0 0.0
2014-Jun-23 15:31N 58°55' E 005°44'0 0.0
2014-Jun-23 14:31N 58°55' E 005°44'0 0.0
2014-Jun-23 12:33N 58°55' E 005°44'0 0.0
2014-Jun-23 11:33N 58°55' E 005°44'0 0.0
2014-Jun-23 10:31N 58°55' E 005°44'0 0.0
2014-Jun-23 09:32N 58°55' E 005°44'0 0.0
2014-Jun-23 08:32N 58°55' E 005°44'0 0.0
2014-Jun-23 07:33N 58°55' E 005°44'0 0.0
2014-Jun-23 06:31N 58°55' E 005°44'0 0.0
2014-Jun-23 05:31N 58°55' E 005°44'0 0.0
2014-Jun-23 04:32N 58°55' E 005°44'0 0.0
2014-Jun-23 03:33N 58°55' E 005°44'0 0.0
2014-Jun-23 02:33N 58°55' E 005°44'0 0.0
2014-Jun-23 01:31N 58°55' E 005°44'0 0.0
2014-Jun-23 00:32N 58°55' E 005°44'0 0.0
2014-Jun-22 23:32N 58°55' E 005°44'0 0.0
2014-Jun-22 22:33N 58°55' E 005°44'0 0.0
2014-Jun-22 21:31N 58°55' E 005°44'0 0.0
2014-Jun-22 20:31N 58°55' E 005°44'0 0.0
2014-Jun-22 19:32N 58°55' E 005°44'0 0.0
2014-Jun-22 18:33N 58°55' E 005°44'0 0.0
2014-Jun-22 17:33N 58°55' E 005°44'0 0.0
2014-Jun-22 16:31N 58°55' E 005°44'0 0.0
2014-Jun-22 15:32N 58°55' E 005°44'0 0.0
2014-Jun-22 14:32N 58°55' E 005°44'0 0.0
2014-Jun-22 13:33N 58°55' E 005°44'0 0.0
2014-Jun-22 12:31N 58°55' E 005°44'  

Dump ship's entire track history